GMTN/TTU METAR and TAF weather

Enter ICAO airport designator
Station Type Date Time Source
GMTN METAR 2020/03/31 21:00 UTC NOAA

GMTN 312100Z 25010KT 9999 SCT024TCU SCT050 16/12 Q1010 NOSIG


Station Type Date Time Source
GMTN Decoded METAR 2020/03/31 21:00 UTC NOAA

Tetuan / Sania Ramel, Morocco (GMTN) 35-35N 005-20W 10M
Mar 31, 2020 - 05:00 PM EDT / 2020.03.31 2100 UTC
Wind: from the WSW (250 degrees) at 12 MPH (10 KT):0
Visibility: greater than 7 mile(s):0
Sky conditions: partly cloudy
Weather: Towering cumulus clouds observed
Temperature: 60 F (16 C)
Dew Point: 53 F (12 C)
Relative Humidity: 77%
Pressure (altimeter): 29.83 in. Hg (1010 hPa)
ob: GMTN 312100Z 25010KT 9999 SCT024TCU SCT050 16/12 Q1010 NOSIG
cycle: 21

Station Type Date Time Source
GMTN TAF UTC NOAA

Error!

Example: see airport list